createdAt,value
2022-09-07T00:01:36.056Z,16.92
2022-09-07T00:04:03.837Z,16.92
2022-09-07T00:06:31.029Z,16.92
2022-09-07T00:08:58.934Z,16.90
2022-09-07T00:11:25.717Z,16.83
2022-09-07T00:13:55.033Z,16.80
2022-09-07T00:16:30.100Z,16.80
2022-09-07T00:18:59.531Z,16.79
2022-09-07T00:21:27.017Z,16.82
2022-09-07T00:23:54.531Z,16.65
2022-09-07T00:26:24.224Z,16.78
2022-09-07T00:28:56.830Z,16.76
2022-09-07T00:31:28.292Z,16.73
2022-09-07T00:33:59.099Z,16.61
2022-09-07T00:36:26.254Z,16.62
2022-09-07T00:38:53.642Z,16.61
2022-09-07T00:41:22.377Z,16.61
2022-09-07T00:43:55.657Z,16.52
2022-09-07T00:46:32.275Z,16.56
2022-09-07T00:49:09.780Z,16.51
2022-09-07T00:51:47.577Z,16.52
2022-09-07T00:54:23.350Z,16.48
2022-09-07T00:56:52.968Z,16.49
2022-09-07T00:59:29.157Z,16.48
2022-09-07T01:01:56.195Z,16.48
2022-09-07T01:04:24.195Z,16.40
2022-09-07T01:06:51.610Z,16.38
2022-09-07T01:09:24.012Z,16.44
2022-09-07T01:11:53.542Z,16.46
2022-09-07T01:14:24.293Z,16.30
2022-09-07T01:17:34.062Z,16.25
2022-09-07T01:20:33.646Z,16.22
2022-09-07T01:23:06.069Z,16.17
2022-09-07T01:25:53.347Z,16.16
2022-09-07T01:28:29.504Z,16.12
2022-09-07T01:31:01.880Z,16.22
2022-09-07T01:33:42.897Z,16.23
2022-09-07T01:36:33.738Z,16.18
2022-09-07T01:39:02.795Z,16.21
2022-09-07T01:41:46.502Z,16.05
2022-09-07T01:44:48.225Z,16.02
2022-09-07T01:47:25.873Z,16.05
2022-09-07T01:49:58.906Z,15.97
2022-09-07T01:52:32.104Z,15.92
2022-09-07T01:55:13.049Z,15.76
2022-09-07T01:57:48.619Z,15.81
2022-09-07T02:00:18.518Z,15.69
2022-09-07T02:02:51.348Z,15.71
2022-09-07T02:05:36.273Z,15.65
2022-09-07T02:08:17.610Z,15.60
2022-09-07T02:10:52.378Z,15.60
2022-09-07T02:13:34.504Z,15.57
2022-09-07T02:16:07.041Z,15.40
2022-09-07T02:18:45.372Z,15.39
2022-09-07T02:21:17.413Z,15.38
2022-09-07T02:23:52.009Z,15.32
2022-09-07T02:26:22.446Z,15.25
2022-09-07T02:28:49.627Z,15.12
2022-09-07T02:31:16.492Z,15.28
2022-09-07T02:33:45.502Z,15.30
2022-09-07T02:36:16.317Z,15.25
2022-09-07T02:38:48.317Z,15.30
2022-09-07T02:41:35.446Z,15.32
2022-09-07T02:44:07.681Z,15.12
2022-09-07T02:46:40.852Z,15.27
2022-09-07T02:49:19.693Z,15.27
2022-09-07T02:52:14.934Z,15.25
2022-09-07T02:55:00.308Z,15.29
2022-09-07T02:57:45.747Z,15.27
2022-09-07T03:00:20.860Z,15.24
2022-09-07T03:03:08.384Z,15.29
2022-09-07T03:05:52.995Z,15.27
2022-09-07T03:08:39.913Z,15.28
2022-09-07T03:11:08.359Z,15.32
2022-09-07T03:13:36.342Z,15.27
2022-09-07T03:16:03.253Z,15.19
2022-09-07T03:18:31.334Z,15.27
2022-09-07T03:20:58.205Z,15.33
2022-09-07T03:23:25.042Z,15.32
2022-09-07T03:25:52.426Z,15.36
2022-09-07T03:28:20.406Z,15.35
2022-09-07T03:30:47.658Z,15.34
2022-09-07T03:33:17.730Z,15.31
2022-09-07T03:35:46.042Z,15.27
2022-09-07T03:38:13.050Z,15.20
2022-09-07T03:40:40.371Z,15.04
2022-09-07T03:43:07.199Z,15.22
2022-09-07T03:45:34.291Z,15.11
2022-09-07T03:48:04.158Z,15.22
2022-09-07T03:50:31.024Z,15.23
2022-09-07T03:52:57.931Z,15.14
2022-09-07T03:55:24.814Z,15.21
2022-09-07T03:57:52.802Z,15.17
2022-09-07T04:00:19.704Z,15.25
2022-09-07T04:02:51.239Z,15.27
2022-09-07T04:05:18.233Z,15.27
2022-09-07T04:07:45.013Z,15.24
2022-09-07T04:10:11.967Z,15.31
2022-09-07T04:12:38.816Z,15.29
2022-09-07T04:15:05.977Z,15.35
2022-09-07T04:17:32.846Z,15.33
2022-09-07T04:19:59.693Z,15.31
2022-09-07T04:22:26.586Z,15.34
2022-09-07T04:25:03.789Z,15.38
2022-09-07T04:27:31.027Z,15.31
2022-09-07T04:30:00.028Z,15.36
2022-09-07T04:32:26.878Z,15.38
2022-09-07T04:34:54.555Z,15.44
2022-09-07T04:37:21.475Z,15.49
2022-09-07T04:39:48.613Z,15.53
2022-09-07T04:42:15.504Z,15.42
2022-09-07T04:44:43.552Z,15.41
2022-09-07T04:47:10.428Z,15.31
2022-09-07T04:49:38.090Z,15.37
2022-09-07T04:52:05.113Z,15.26
2022-09-07T04:54:31.917Z,15.34
2022-09-07T04:56:58.840Z,15.39
2022-09-07T04:59:27.901Z,15.45
2022-09-07T05:01:54.883Z,15.50
2022-09-07T05:04:21.578Z,15.58
2022-09-07T05:06:48.418Z,15.55
2022-09-07T05:09:17.362Z,15.53
2022-09-07T05:11:44.174Z,15.52
2022-09-07T05:14:12.119Z,15.49
2022-09-07T05:16:39.076Z,15.50
2022-09-07T05:19:05.933Z,15.48
2022-09-07T05:21:34.626Z,15.65
2022-09-07T05:24:04.473Z,15.64
2022-09-07T05:26:34.102Z,15.77
2022-09-07T05:31:51.977Z,15.97
2022-09-07T05:34:34.223Z,15.86
2022-09-07T05:37:01.866Z,15.84
2022-09-07T05:39:29.137Z,15.88
2022-09-07T05:41:56.377Z,15.95
2022-09-07T05:47:10.730Z,15.91
2022-09-07T05:49:37.678Z,16.05
2022-09-07T05:52:04.605Z,16.02
2022-09-07T05:54:33.523Z,16.01
2022-09-07T05:57:00.453Z,15.97
2022-09-07T05:59:28.260Z,16.01
2022-09-07T06:01:55.143Z,15.84
2022-09-07T06:04:22.190Z,16.12
2022-09-07T06:07:11.041Z,16.22
2022-09-07T06:12:25.148Z,16.34
2022-09-07T06:14:53.995Z,16.33
2022-09-07T06:17:20.824Z,16.52
2022-09-07T06:19:47.818Z,16.56
2022-09-07T06:22:14.607Z,16.70
2022-09-07T06:24:41.485Z,16.62
2022-09-07T06:27:08.300Z,16.54
2022-09-07T06:29:38.522Z,16.40
2022-09-07T06:34:52.363Z,16.31
2022-09-07T06:37:19.141Z,16.36
2022-09-07T06:39:49.606Z,16.53
2022-09-07T06:42:16.825Z,16.62
2022-09-07T06:44:44.381Z,16.79
2022-09-07T06:47:11.206Z,16.93
2022-09-07T06:49:38.186Z,17.02
2022-09-07T06:52:04.846Z,17.23
2022-09-07T06:57:19.539Z,17.40
2022-09-07T06:59:47.565Z,17.44
2022-09-07T07:02:17.201Z,17.50
2022-09-07T07:04:46.847Z,17.49
2022-09-07T07:07:14.405Z,17.46
2022-09-07T07:09:42.647Z,17.47
2022-09-07T07:12:10.819Z,17.61
2022-09-07T07:14:41.118Z,17.62
2022-09-07T07:17:11.058Z,17.41
2022-09-07T07:19:37.837Z,17.48
2022-09-07T07:22:18.744Z,17.56
2022-09-07T07:24:51.684Z,17.85
2022-09-07T07:27:18.586Z,18.07
2022-09-07T07:29:46.289Z,18.31
2022-09-07T07:32:13.299Z,18.50
2022-09-07T07:34:44.371Z,18.65
2022-09-07T07:37:11.191Z,18.87
2022-09-07T07:42:29.947Z,19.57
2022-09-07T07:47:48.635Z,20.27
2022-09-07T07:50:32.082Z,20.28
2022-09-07T07:55:46.959Z,19.86
2022-09-07T07:58:14.994Z,20.07
2022-09-07T08:00:54.325Z,20.18
2022-09-07T08:03:26.597Z,20.18
2022-09-07T08:05:54.731Z,20.39
2022-09-07T08:08:23.818Z,20.55
2022-09-07T08:10:51.581Z,20.90
2022-09-07T08:13:20.174Z,21.25
2022-09-07T08:15:47.358Z,21.56
2022-09-07T08:18:17.346Z,21.75
2022-09-07T08:20:44.722Z,21.66
2022-09-07T08:23:20.510Z,20.92
2022-09-07T08:25:55.049Z,20.39
2022-09-07T08:28:23.993Z,20.59
2022-09-07T08:30:51.285Z,20.78
2022-09-07T08:33:18.809Z,21.05
2022-09-07T08:36:17.628Z,21.37
2022-09-07T08:38:47.098Z,21.69
2022-09-07T08:41:39.708Z,21.89
2022-09-07T08:44:26.806Z,22.42
2022-09-07T08:46:59.609Z,23.29
2022-09-07T08:49:44.211Z,23.64
2022-09-07T08:52:19.870Z,24.10
2022-09-07T08:57:26.833Z,23.86
2022-09-07T09:00:13.938Z,23.64
2022-09-07T09:02:44.372Z,23.58
2022-09-07T09:05:28.443Z,23.48
2022-09-07T09:08:18.420Z,23.38
2022-09-07T09:11:05.868Z,23.45
2022-09-07T09:13:47.554Z,23.39
2022-09-07T09:16:29.486Z,23.41
2022-09-07T09:19:19.771Z,23.49
2022-09-07T09:21:47.111Z,23.32
2022-09-07T09:24:19.307Z,23.30
2022-09-07T09:29:23.881Z,23.58
2022-09-07T09:31:50.721Z,23.66
2022-09-07T09:34:23.872Z,23.59
2022-09-07T09:36:56.017Z,23.70
2022-09-07T09:39:33.520Z,23.75
2022-09-07T09:42:24.599Z,23.86
2022-09-07T09:44:52.205Z,23.89
2022-09-07T09:47:39.602Z,23.83
2022-09-07T09:53:40.319Z,23.96
2022-09-07T09:56:08.297Z,24.14
2022-09-07T10:01:36.876Z,24.86
2022-09-07T10:04:35.559Z,25.23
2022-09-07T10:07:05.602Z,25.73
2022-09-07T10:09:48.113Z,26.09
2022-09-07T10:12:35.934Z,26.04
2022-09-07T10:15:06.214Z,25.48
2022-09-07T10:17:40.609Z,25.58
2022-09-07T10:20:17.265Z,25.09
2022-09-07T10:22:50.865Z,25.04
2022-09-07T10:25:33.910Z,24.90
2022-09-07T10:28:22.603Z,25.47
2022-09-07T10:30:52.316Z,25.92
2022-09-07T10:33:40.814Z,26.49
2022-09-07T10:36:24.019Z,26.53
2022-09-07T10:39:07.076Z,27.04
2022-09-07T10:41:47.226Z,27.71
2022-09-07T10:44:36.933Z,27.78
2022-09-07T10:47:16.809Z,27.40
2022-09-07T10:52:53.994Z,27.05
2022-09-07T10:55:31.707Z,27.14
2022-09-07T11:01:36.000Z,28.22
2022-09-07T11:04:12.431Z,28.59
2022-09-07T11:07:00.941Z,28.39
2022-09-07T11:09:48.717Z,29.04
2022-09-07T11:12:26.112Z,29.47
2022-09-07T11:15:16.976Z,29.91
2022-09-07T11:17:55.139Z,30.14
2022-09-07T11:20:57.119Z,30.17
2022-09-07T11:23:46.263Z,30.46
2022-09-07T11:26:19.892Z,30.59
2022-09-07T11:31:54.374Z,31.01
2022-09-07T11:34:24.725Z,31.16
2022-09-07T11:37:17.173Z,31.35
2022-09-07T11:39:51.893Z,31.44
2022-09-07T11:42:48.291Z,31.18
2022-09-07T11:45:21.520Z,30.57
2022-09-07T11:47:58.800Z,30.84
2022-09-07T11:50:30.045Z,31.09
2022-09-07T11:53:04.004Z,31.49
2022-09-07T11:55:36.869Z,31.42
2022-09-07T11:58:22.356Z,31.62
2022-09-07T12:01:30.806Z,31.60
2022-09-07T12:04:04.523Z,31.48
2022-09-07T12:06:53.438Z,31.23
2022-09-07T12:09:52.369Z,30.84
2022-09-07T12:12:46.554Z,30.73
2022-09-07T12:15:30.603Z,30.72
2022-09-07T12:18:13.379Z,30.54
2022-09-07T12:20:47.050Z,30.20
2022-09-07T12:23:18.059Z,30.41
2022-09-07T12:25:47.698Z,30.58
2022-09-07T12:28:24.114Z,30.97
2022-09-07T12:31:05.013Z,31.06
2022-09-07T12:33:37.758Z,31.43
2022-09-07T12:36:28.302Z,31.45
2022-09-07T12:39:33.219Z,31.80
2022-09-07T12:45:32.109Z,32.57
2022-09-07T12:48:06.717Z,32.90
2022-09-07T12:51:16.054Z,33.14
2022-09-07T12:53:52.096Z,33.20
2022-09-07T12:56:37.964Z,33.22
2022-09-07T12:59:38.198Z,33.15
2022-09-07T13:02:29.439Z,33.03
2022-09-07T13:05:39.481Z,33.24
2022-09-07T13:08:34.615Z,33.40
2022-09-07T13:11:20.704Z,33.60
2022-09-07T13:14:09.416Z,33.29
2022-09-07T13:19:56.559Z,32.38
2022-09-07T13:22:29.572Z,32.76
2022-09-07T13:25:00.562Z,33.03
2022-09-07T13:27:43.492Z,33.24
2022-09-07T13:30:18.049Z,33.07
2022-09-07T13:35:34.269Z,32.70
2022-09-07T13:38:03.158Z,32.99
2022-09-07T13:40:46.013Z,32.83
2022-09-07T13:43:21.024Z,32.86
2022-09-07T13:45:53.811Z,33.09
2022-09-07T13:48:21.062Z,33.40
2022-09-07T13:51:20.580Z,33.52
2022-09-07T13:54:02.493Z,33.74
2022-09-07T13:57:10.665Z,33.79
2022-09-07T13:59:37.601Z,34.13
2022-09-07T14:02:23.004Z,34.00
2022-09-07T14:04:52.424Z,34.05
2022-09-07T14:07:25.093Z,34.26
2022-09-07T14:10:10.964Z,34.18
2022-09-07T14:12:47.963Z,34.14
2022-09-07T14:15:41.789Z,33.86
2022-09-07T14:18:12.834Z,33.89
2022-09-07T14:20:51.522Z,33.72
2022-09-07T14:23:30.422Z,33.50
2022-09-07T14:26:20.157Z,32.95
2022-09-07T14:28:54.189Z,32.37
2022-09-07T14:31:23.419Z,32.01
2022-09-07T14:33:59.109Z,31.57
2022-09-07T14:36:45.888Z,31.18
2022-09-07T14:39:20.062Z,30.76
2022-09-07T14:41:47.215Z,30.44
2022-09-07T14:44:28.091Z,30.05
2022-09-07T14:46:56.970Z,29.74
2022-09-07T14:49:24.550Z,29.47
2022-09-07T14:51:53.848Z,29.23
2022-09-07T14:54:25.362Z,28.95
2022-09-07T14:57:11.741Z,28.58
2022-09-07T14:59:40.511Z,28.48
2022-09-07T15:02:24.069Z,28.21
2022-09-07T15:05:23.216Z,27.90
2022-09-07T15:07:59.802Z,27.66
2022-09-07T15:10:30.913Z,27.32
2022-09-07T15:13:00.236Z,26.96
2022-09-07T15:15:34.381Z,26.65
2022-09-07T15:18:09.105Z,26.36
2022-09-07T15:20:38.786Z,26.06
2022-09-07T15:23:14.543Z,25.77
2022-09-07T15:25:47.977Z,25.42
2022-09-07T15:34:15.777Z,24.83
2022-09-07T15:36:48.782Z,24.42
2022-09-07T15:39:19.130Z,24.40
2022-09-07T15:41:46.366Z,24.18
2022-09-07T15:44:15.361Z,23.79
2022-09-07T15:47:42.080Z,23.46
2022-09-07T15:49:30.491Z,23.09
2022-09-07T15:52:05.140Z,22.69
2022-09-07T15:54:35.018Z,21.91
2022-09-07T15:59:51.409Z,19.78
2022-09-07T16:05:17.445Z,-143.57
2022-09-07T16:10:33.315Z,-143.57
2022-09-07T16:13:01.158Z,-143.57
2022-09-07T16:15:28.874Z,-143.57
2022-09-07T16:17:55.757Z,-143.57
2022-09-07T16:20:23.785Z,-143.57
2022-09-07T16:25:43.461Z,-143.57
2022-09-07T16:28:10.931Z,-143.57
2022-09-07T16:30:41.033Z,-143.57
2022-09-07T16:33:08.428Z,-143.57
2022-09-07T16:35:35.269Z,-143.57
2022-09-07T16:40:51.171Z,-143.57
2022-09-07T16:43:20.204Z,-143.57
2022-09-07T16:46:05.201Z,-143.57
2022-09-07T16:48:35.760Z,-143.57
2022-09-07T16:51:05.356Z,-143.57
2022-09-07T16:53:35.475Z,-143.57
2022-09-07T16:56:04.165Z,-143.57
2022-09-07T16:58:37.893Z,-143.57
2022-09-07T17:01:09.817Z,-143.57
2022-09-07T17:03:38.178Z,-143.57
2022-09-07T17:06:08.523Z,-143.57
2022-09-07T17:08:38.984Z,-143.57
2022-09-07T17:11:11.229Z,-143.57
2022-09-07T17:13:43.538Z,-143.57
2022-09-07T17:16:14.060Z,-143.57
2022-09-07T17:21:35.460Z,-143.57
2022-09-07T17:24:05.929Z,-143.57
2022-09-07T17:26:34.531Z,-143.57
2022-09-07T17:29:02.162Z,-143.57
2022-09-07T17:34:25.381Z,-143.57
2022-09-07T17:36:52.092Z,-143.57
2022-09-07T17:39:20.083Z,-143.57
2022-09-07T17:41:52.926Z,-143.57
2022-09-07T17:44:24.038Z,-143.57
2022-09-07T17:46:52.524Z,-143.57
2022-09-07T17:49:21.753Z,-143.57
2022-09-07T17:51:51.417Z,-143.57
2022-09-07T17:54:20.008Z,-143.57
2022-09-07T17:56:47.206Z,-143.57
2022-09-07T18:02:05.903Z,-143.57
2022-09-07T18:04:36.067Z,-143.57
2022-09-07T18:07:03.487Z,-143.57
2022-09-07T18:09:30.273Z,-143.57
2022-09-07T18:11:57.075Z,-143.57
2022-09-07T18:14:30.139Z,-143.57
2022-09-07T18:16:56.954Z,-143.57
2022-09-07T18:19:24.390Z,-143.57
2022-09-07T18:21:52.047Z,-143.57
2022-09-07T18:24:22.446Z,-143.57
2022-09-07T18:26:52.079Z,-143.57
2022-09-07T18:29:32.364Z,-143.57
2022-09-07T18:32:08.500Z,-143.57
2022-09-07T18:34:38.118Z,-143.57
2022-09-07T18:37:06.173Z,-143.57
2022-09-07T18:39:34.212Z,17.21
2022-09-07T18:42:01.315Z,17.18
2022-09-07T18:47:28.016Z,17.06
2022-09-07T18:49:55.768Z,17.09
2022-09-07T18:55:10.381Z,17.13
2022-09-07T18:57:37.741Z,17.00
2022-09-07T19:00:06.986Z,17.20
2022-09-07T19:02:33.904Z,17.18
2022-09-07T19:07:47.739Z,17.27
2022-09-07T19:10:17.070Z,17.29
2022-09-07T19:12:46.078Z,17.24
2022-09-07T19:15:14.524Z,17.30
2022-09-07T19:17:41.630Z,17.17
2022-09-07T19:20:08.798Z,17.30
2022-09-07T19:22:36.106Z,17.16
2022-09-07T19:25:02.973Z,17.15
2022-09-07T19:27:33.243Z,17.09
2022-09-07T19:30:02.711Z,17.17
2022-09-07T19:32:29.745Z,17.01
2022-09-07T19:34:58.368Z,17.19
2022-09-07T19:37:29.115Z,17.09
2022-09-07T19:40:05.890Z,17.25
2022-09-07T19:42:32.993Z,17.12
2022-09-07T19:45:03.839Z,17.26
2022-09-07T19:47:30.577Z,17.14
2022-09-07T19:49:57.361Z,17.13
2022-09-07T19:52:24.322Z,17.14
2022-09-07T19:54:53.088Z,17.23
2022-09-07T19:57:20.035Z,17.13
2022-09-07T19:59:47.756Z,17.21
2022-09-07T20:02:14.522Z,17.12
2022-09-07T20:04:41.451Z,17.04
2022-09-07T20:07:08.638Z,17.11
2022-09-07T20:09:35.830Z,17.01
2022-09-07T20:12:03.950Z,17.08
2022-09-07T20:14:30.855Z,17.05
2022-09-07T20:16:57.860Z,16.96
2022-09-07T20:19:24.603Z,17.00
2022-09-07T20:21:55.622Z,16.86
2022-09-07T20:24:23.356Z,16.89
2022-09-07T20:26:50.280Z,16.90
2022-09-07T20:29:27.310Z,16.94
2022-09-07T20:31:59.162Z,16.86
2022-09-07T20:34:27.361Z,16.88
2022-09-07T20:36:54.659Z,16.84
2022-09-07T20:39:21.927Z,16.86
2022-09-07T20:41:48.996Z,16.87
2022-09-07T20:44:16.327Z,16.84
2022-09-07T20:46:43.527Z,16.84
2022-09-07T20:49:10.510Z,16.84
2022-09-07T20:51:37.223Z,16.90
2022-09-07T20:54:03.956Z,16.83
2022-09-07T20:56:31.282Z,16.86
2022-09-07T20:59:00.354Z,16.79
2022-09-07T21:01:28.830Z,16.88
2022-09-07T21:03:58.012Z,16.88
2022-09-07T21:06:26.106Z,16.87
2022-09-07T21:08:54.213Z,16.84
2022-09-07T21:11:34.010Z,16.74
2022-09-07T21:14:06.281Z,16.84
2022-09-07T21:16:34.793Z,16.81
2022-09-07T21:19:03.385Z,16.80
2022-09-07T21:21:38.389Z,16.79
2022-09-07T21:24:07.312Z,16.74
2022-09-07T21:26:34.226Z,16.68
2022-09-07T21:29:03.455Z,16.70
2022-09-07T21:31:31.699Z,16.58
2022-09-07T21:34:01.618Z,16.51
2022-09-07T21:36:29.117Z,16.52
2022-09-07T21:38:56.070Z,16.53
2022-09-07T21:41:25.106Z,16.56
2022-09-07T21:43:59.677Z,16.58
2022-09-07T21:46:27.990Z,16.54
2022-09-07T21:48:56.511Z,16.60
2022-09-07T21:51:23.923Z,16.56
2022-09-07T21:53:52.791Z,16.56
2022-09-07T21:56:20.081Z,16.52
2022-09-07T21:58:47.128Z,16.42
2022-09-07T22:01:17.594Z,16.30
2022-09-07T22:03:46.886Z,16.34
2022-09-07T22:06:14.713Z,16.28
2022-09-07T22:08:42.489Z,16.31
2022-09-07T22:11:12.361Z,16.26
2022-09-07T22:13:39.967Z,16.25
2022-09-07T22:16:07.614Z,16.28
2022-09-07T22:18:36.918Z,16.23
2022-09-07T22:21:10.515Z,16.15
2022-09-07T22:23:43.770Z,16.09
2022-09-07T22:26:10.609Z,15.94
2022-09-07T22:28:38.153Z,15.94
2022-09-07T22:31:29.161Z,15.93
2022-09-07T22:33:59.348Z,15.83
2022-09-07T22:36:34.942Z,15.85
2022-09-07T22:39:05.406Z,15.76
2022-09-07T22:41:34.053Z,15.76
2022-09-07T22:44:01.077Z,15.57
2022-09-07T22:46:28.976Z,15.67
2022-09-07T22:48:59.221Z,15.57
2022-09-07T22:51:27.040Z,15.56
2022-09-07T22:53:55.010Z,15.51
2022-09-07T22:56:33.101Z,15.52
2022-09-07T22:59:07.462Z,15.46
2022-09-07T23:01:35.461Z,15.43
2022-09-07T23:04:03.277Z,15.30
2022-09-07T23:06:38.750Z,15.32
2022-09-07T23:09:11.546Z,15.25
2022-09-07T23:11:38.770Z,15.22
2022-09-07T23:14:06.640Z,15.21
2022-09-07T23:16:33.866Z,15.12
2022-09-07T23:19:01.463Z,15.04
2022-09-07T23:21:28.660Z,15.10
2022-09-07T23:23:59.865Z,15.01
2022-09-07T23:26:29.626Z,15.12
2022-09-07T23:28:59.139Z,15.19
2022-09-07T23:31:27.568Z,15.21
2022-09-07T23:33:56.073Z,15.18
2022-09-07T23:36:23.125Z,14.93
2022-09-07T23:38:50.119Z,14.96
2022-09-07T23:41:19.746Z,14.91
2022-09-07T23:43:46.535Z,14.92
2022-09-07T23:46:14.011Z,14.90
2022-09-07T23:48:42.697Z,14.74
2022-09-07T23:51:09.412Z,14.83
2022-09-07T23:53:36.171Z,14.82
2022-09-07T23:56:03.598Z,14.80
2022-09-07T23:58:30.498Z,14.77
